createdAt,value
2023-10-09T00:03:05.551Z,2.40
2023-10-09T00:08:27.450Z,2.72
2023-10-09T00:13:49.229Z,2.60
2023-10-09T00:19:11.017Z,2.45
2023-10-09T00:24:34.050Z,2.67
2023-10-09T00:29:55.983Z,2.70
2023-10-09T00:35:17.781Z,2.72
2023-10-09T00:40:39.522Z,2.55
2023-10-09T00:46:03.260Z,2.58
2023-10-09T00:51:25.834Z,3.03
2023-10-09T00:56:47.826Z,2.78
2023-10-09T01:02:09.830Z,3.00
2023-10-09T01:07:31.691Z,2.80
2023-10-09T01:12:53.605Z,3.10
2023-10-09T01:18:15.852Z,2.88
2023-10-09T01:23:37.630Z,3.03
2023-10-09T01:28:59.795Z,3.15
2023-10-09T01:34:29.973Z,2.97
2023-10-09T01:39:53.650Z,2.90
2023-10-09T01:45:15.796Z,2.53
2023-10-09T01:50:37.560Z,2.80
2023-10-09T01:56:09.492Z,2.75
2023-10-09T02:01:31.312Z,2.38
2023-10-09T02:06:53.173Z,2.80
2023-10-09T02:12:14.998Z,2.30
2023-10-09T02:17:36.931Z,2.67
2023-10-09T02:22:58.736Z,2.85
2023-10-09T02:28:20.531Z,2.50
2023-10-09T02:33:42.426Z,2.15
2023-10-09T02:39:04.260Z,2.80
2023-10-09T02:44:26.122Z,2.95
2023-10-09T02:49:48.840Z,2.85
2023-10-09T02:55:10.675Z,3.15
2023-10-09T03:00:33.181Z,2.85
2023-10-09T03:05:55.008Z,2.50
2023-10-09T03:11:16.782Z,3.10
2023-10-09T03:16:38.700Z,3.30
2023-10-09T03:22:00.543Z,2.97
2023-10-09T03:27:22.321Z,2.85
2023-10-09T03:32:45.743Z,3.47
2023-10-09T03:38:07.613Z,3.90
2023-10-09T03:43:29.389Z,3.50
2023-10-09T03:48:51.528Z,3.45
2023-10-09T03:54:13.581Z,2.70
2023-10-09T03:59:35.502Z,3.13
2023-10-09T04:04:57.358Z,3.58
2023-10-09T04:10:19.257Z,3.03
2023-10-09T04:15:41.139Z,3.10
2023-10-09T04:21:03.041Z,3.90
2023-10-09T04:26:25.938Z,3.60
2023-10-09T04:31:48.631Z,3.42
2023-10-09T04:37:10.387Z,3.30
2023-10-09T04:42:32.260Z,3.55
2023-10-09T04:47:54.112Z,3.15
2023-10-09T04:53:15.880Z,3.00
2023-10-09T04:58:37.643Z,3.85
2023-10-09T05:03:59.509Z,3.40
2023-10-09T05:09:23.633Z,3.45
2023-10-09T05:14:45.531Z,3.70
2023-10-09T05:20:07.967Z,3.90
2023-10-09T05:25:29.765Z,4.13
2023-10-09T05:30:51.518Z,3.95
2023-10-09T05:36:13.604Z,3.55
2023-10-09T05:41:35.501Z,3.40
2023-10-09T05:46:57.342Z,4.07
2023-10-09T05:52:19.076Z,3.55
2023-10-09T05:57:41.000Z,3.92
2023-10-09T06:03:03.215Z,4.32
2023-10-09T06:08:30.282Z,3.95
2023-10-09T06:13:52.039Z,3.30
2023-10-09T06:19:15.194Z,4.00
2023-10-09T06:24:38.923Z,3.55
2023-10-09T06:30:02.657Z,3.22
2023-10-09T06:35:25.382Z,4.03
2023-10-09T06:40:49.640Z,3.42
2023-10-09T06:46:16.367Z,3.80
2023-10-09T06:56:59.994Z,3.85
2023-10-09T07:02:21.779Z,4.00
2023-10-09T07:07:43.593Z,3.90
2023-10-09T07:13:06.191Z,4.43
2023-10-09T07:18:29.363Z,3.75
2023-10-09T07:23:51.175Z,3.88
2023-10-09T07:29:12.940Z,3.88
2023-10-09T07:34:34.738Z,4.07
2023-10-09T07:39:56.513Z,4.70
2023-10-09T07:45:18.548Z,4.65
2023-10-09T07:50:40.432Z,4.47
2023-10-09T07:56:02.210Z,4.97
2023-10-09T08:01:24.129Z,4.30
2023-10-09T08:07:04.402Z,5.32
2023-10-09T08:12:28.479Z,4.78
2023-10-09T08:17:55.788Z,4.68
2023-10-09T08:23:18.330Z,4.32
2023-10-09T08:28:41.236Z,4.18
2023-10-09T08:39:27.727Z,4.45
2023-10-09T08:44:49.584Z,2.95
2023-10-09T08:50:11.338Z,3.25
2023-10-09T08:55:34.030Z,3.33
2023-10-09T09:00:55.909Z,3.67
2023-10-09T09:06:21.148Z,2.85
2023-10-09T09:11:43.877Z,2.53
2023-10-09T09:17:07.691Z,4.32
2023-10-09T09:22:31.843Z,2.60
2023-10-09T09:27:53.656Z,2.67
2023-10-09T09:33:26.315Z,3.00
2023-10-09T09:38:48.409Z,2.75
2023-10-09T09:44:10.554Z,1.75
2023-10-09T09:49:32.633Z,2.20
2023-10-09T09:54:54.590Z,2.45
2023-10-09T10:00:19.176Z,2.55
2023-10-09T10:05:43.624Z,3.22
2023-10-09T10:11:05.805Z,1.60
2023-10-09T10:16:28.102Z,1.90
2023-10-09T10:21:50.541Z,2.33
2023-10-09T10:27:12.300Z,2.58
2023-10-09T10:32:57.310Z,1.80
2023-10-09T10:38:32.318Z,2.03
2023-10-09T10:43:54.274Z,1.98
2023-10-09T10:49:17.479Z,1.58
2023-10-09T10:54:39.472Z,1.88
2023-10-09T11:00:01.423Z,1.88
2023-10-09T11:05:27.004Z,2.03
2023-10-09T11:10:51.009Z,1.70
2023-10-09T11:16:13.844Z,1.85
2023-10-09T11:21:36.042Z,1.90
2023-10-09T11:26:57.859Z,1.83
2023-10-09T11:32:21.909Z,2.10
2023-10-09T11:37:43.907Z,2.15
2023-10-09T11:43:05.954Z,2.03
2023-10-09T11:48:27.693Z,2.50
2023-10-09T11:53:49.417Z,1.65
2023-10-09T11:59:11.260Z,1.83
2023-10-09T12:04:33.228Z,1.95
2023-10-09T12:09:55.204Z,2.20
2023-10-09T12:15:17.024Z,2.53
2023-10-09T12:20:38.824Z,2.97
2023-10-09T12:26:00.605Z,2.97
2023-10-09T12:31:22.547Z,3.28
2023-10-09T12:36:47.173Z,3.20
2023-10-09T12:42:10.078Z,3.90
2023-10-09T12:47:32.376Z,4.10
2023-10-09T12:53:01.334Z,3.45
2023-10-09T12:58:23.113Z,4.60
2023-10-09T13:03:44.973Z,3.58
2023-10-09T13:09:06.795Z,3.65
2023-10-09T13:14:29.261Z,4.60
2023-10-09T13:19:51.055Z,4.00
2023-10-09T13:25:23.855Z,4.70
2023-10-09T13:30:53.543Z,4.63
2023-10-09T13:36:16.075Z,4.00
2023-10-09T13:41:37.893Z,4.35
2023-10-09T13:47:01.986Z,4.85
2023-10-09T13:52:23.835Z,4.82
2023-10-09T13:57:45.587Z,4.30
2023-10-09T14:03:07.433Z,3.92
2023-10-09T14:08:29.255Z,3.85
2023-10-09T14:13:59.111Z,3.83
2023-10-09T14:19:28.159Z,4.13
2023-10-09T14:24:50.104Z,4.30
2023-10-09T14:30:12.125Z,4.50
2023-10-09T14:35:33.943Z,4.00
2023-10-09T14:40:55.814Z,4.28
2023-10-09T14:46:17.801Z,4.85
2023-10-09T14:51:39.640Z,4.65
2023-10-09T14:57:01.398Z,4.30
2023-10-09T15:02:23.205Z,5.18
2023-10-09T15:07:47.292Z,4.35
2023-10-09T15:13:09.439Z,5.28
2023-10-09T15:18:31.196Z,5.07
2023-10-09T15:23:56.859Z,4.65
2023-10-09T15:29:22.038Z,4.68
2023-10-09T15:34:43.798Z,4.68
2023-10-09T15:40:09.512Z,5.20
2023-10-09T15:45:32.214Z,4.95
2023-10-09T15:50:54.031Z,4.97
2023-10-09T15:56:15.857Z,4.65
2023-10-09T16:01:37.798Z,5.25
2023-10-09T16:06:59.597Z,5.28
2023-10-09T16:12:21.374Z,5.32
2023-10-09T16:17:43.166Z,5.40
2023-10-09T16:23:05.146Z,5.30
2023-10-09T16:28:28.667Z,5.57
2023-10-09T16:33:50.483Z,5.03
2023-10-09T16:39:12.240Z,5.40
2023-10-09T16:44:34.009Z,5.65
2023-10-09T16:49:55.744Z,5.45
2023-10-09T16:55:17.574Z,5.97
2023-10-09T17:00:39.477Z,5.20
2023-10-09T17:06:01.375Z,6.03
2023-10-09T17:11:23.298Z,8.13
2023-10-09T17:16:45.180Z,6.03
2023-10-09T17:22:06.950Z,5.55
2023-10-09T17:27:28.721Z,5.70
2023-10-09T17:32:50.539Z,5.80
2023-10-09T17:38:12.346Z,5.97
2023-10-09T17:43:34.217Z,5.88
2023-10-09T17:48:56.097Z,5.45
2023-10-09T17:54:17.841Z,5.90
2023-10-09T17:59:39.554Z,6.53
2023-10-09T18:05:04.414Z,5.75
2023-10-09T18:10:26.267Z,6.18
2023-10-09T18:15:48.012Z,6.13
2023-10-09T18:21:10.324Z,6.55
2023-10-09T18:26:32.600Z,6.47
2023-10-09T18:31:54.383Z,6.63
2023-10-09T18:37:16.161Z,7.00
2023-10-09T18:42:38.282Z,6.65
2023-10-09T18:48:00.096Z,6.75
2023-10-09T18:53:21.929Z,7.13
2023-10-09T18:58:44.148Z,7.90
2023-10-09T19:04:06.105Z,8.10
2023-10-09T19:09:27.865Z,8.77
2023-10-09T19:14:49.660Z,7.90
2023-10-09T19:20:12.110Z,14.65
2023-10-09T19:25:33.924Z,9.35
2023-10-09T19:31:04.288Z,8.20
2023-10-09T19:36:26.165Z,8.60
2023-10-09T19:41:47.912Z,7.85
2023-10-09T19:47:10.925Z,9.18
2023-10-09T19:52:32.728Z,24.33
2023-10-09T19:57:54.498Z,42.58
2023-10-09T20:03:16.270Z,24.75
2023-10-09T20:08:38.356Z,34.50
2023-10-09T20:14:00.143Z,21.77
2023-10-09T20:19:22.040Z,17.85
2023-10-09T20:24:44.639Z,13.45
2023-10-09T20:30:06.898Z,12.70
2023-10-09T20:35:28.715Z,10.82
2023-10-09T20:40:50.627Z,10.70
2023-10-09T20:46:12.495Z,9.73
2023-10-09T20:51:42.739Z,9.50
2023-10-09T20:57:16.240Z,9.70
2023-10-09T21:02:38.039Z,11.90
2023-10-09T21:08:00.008Z,11.77
2023-10-09T21:13:21.815Z,11.80
2023-10-09T21:18:45.351Z,12.63
2023-10-09T21:24:07.350Z,11.90
2023-10-09T21:29:29.145Z,13.70
2023-10-09T21:34:51.129Z,12.50
2023-10-09T21:40:13.670Z,13.50
2023-10-09T21:45:40.825Z,13.70
2023-10-09T21:51:02.691Z,12.23
2023-10-09T21:56:24.491Z,12.65
2023-10-09T22:01:53.396Z,14.55
2023-10-09T22:07:29.825Z,14.80
2023-10-09T22:12:53.878Z,14.35
2023-10-09T22:18:16.811Z,14.52
2023-10-09T22:23:39.295Z,14.55
2023-10-09T22:29:01.036Z,14.70
2023-10-09T22:34:22.828Z,15.95
2023-10-09T22:39:44.632Z,15.32
2023-10-09T22:45:06.936Z,15.10
2023-10-09T22:50:28.747Z,14.38
2023-10-09T22:55:52.079Z,14.00
2023-10-09T23:01:13.879Z,13.30
2023-10-09T23:06:35.947Z,12.52
2023-10-09T23:11:58.679Z,13.23
2023-10-09T23:17:21.238Z,13.48
2023-10-09T23:22:43.084Z,15.38
2023-10-09T23:28:04.882Z,15.60
2023-10-09T23:33:26.608Z,15.15
2023-10-09T23:38:48.325Z,14.35
2023-10-09T23:44:10.106Z,14.93
2023-10-09T23:49:31.903Z,12.88
2023-10-09T23:54:53.680Z,12.80
